sensor_id;sensor_type;location;lat;lon;timestamp;P1;durP1;ratioP1;P2;durP2;ratioP2
35969;SDS011;22448;51.298;6.430;2023-06-22T00:00:11;14.48;;;11.20;;
35969;SDS011;22448;51.298;6.430;2023-06-22T00:02:39;13.95;;;10.98;;
35969;SDS011;22448;51.298;6.430;2023-06-22T00:05:06;19.27;;;12.43;;
35969;SDS011;22448;51.298;6.430;2023-06-22T00:07:33;17.55;;;12.15;;
35969;SDS011;22448;51.298;6.430;2023-06-22T00:10:00;19.77;;;11.93;;
35969;SDS011;22448;51.298;6.430;2023-06-22T00:12:27;18.95;;;12.95;;
35969;SDS011;22448;51.298;6.430;2023-06-22T00:14:54;18.40;;;11.75;;
35969;SDS011;22448;51.298;6.430;2023-06-22T00:17:21;17.75;;;12.88;;
35969;SDS011;22448;51.298;6.430;2023-06-22T00:19:48;17.35;;;11.75;;
35969;SDS011;22448;51.298;6.430;2023-06-22T00:22:19;21.20;;;12.65;;
35969;SDS011;22448;51.298;6.430;2023-06-22T00:24:56;18.33;;;12.85;;
35969;SDS011;22448;51.298;6.430;2023-06-22T00:27:23;17.13;;;13.32;;
35969;SDS011;22448;51.298;6.430;2023-06-22T00:29:50;19.80;;;13.38;;
35969;SDS011;22448;51.298;6.430;2023-06-22T00:32:18;21.58;;;12.95;;
35969;SDS011;22448;51.298;6.430;2023-06-22T00:34:46;28.65;;;13.23;;
35969;SDS011;22448;51.298;6.430;2023-06-22T00:37:13;22.88;;;13.95;;
35969;SDS011;22448;51.298;6.430;2023-06-22T00:39:40;22.05;;;13.95;;
35969;SDS011;22448;51.298;6.430;2023-06-22T00:42:08;24.88;;;13.85;;
35969;SDS011;22448;51.298;6.430;2023-06-22T00:44:36;16.85;;;12.73;;
35969;SDS011;22448;51.298;6.430;2023-06-22T00:47:03;19.65;;;12.80;;
35969;SDS011;22448;51.298;6.430;2023-06-22T00:49:31;20.23;;;13.52;;
35969;SDS011;22448;51.298;6.430;2023-06-22T00:51:58;18.88;;;13.60;;
35969;SDS011;22448;51.298;6.430;2023-06-22T00:54:26;19.52;;;13.88;;
35969;SDS011;22448;51.298;6.430;2023-06-22T00:56:55;27.38;;;14.68;;
35969;SDS011;22448;51.298;6.430;2023-06-22T00:59:24;25.90;;;15.10;;
35969;SDS011;22448;51.298;6.430;2023-06-22T01:01:52;24.02;;;14.55;;
35969;SDS011;22448;51.298;6.430;2023-06-22T01:04:19;24.02;;;14.18;;
35969;SDS011;22448;51.298;6.430;2023-06-22T01:06:54;23.92;;;13.93;;
35969;SDS011;22448;51.298;6.430;2023-06-22T01:09:32;24.80;;;14.07;;
35969;SDS011;22448;51.298;6.430;2023-06-22T01:12:05;22.48;;;13.55;;
35969;SDS011;22448;51.298;6.430;2023-06-22T01:17:05;25.38;;;14.10;;
35969;SDS011;22448;51.298;6.430;2023-06-22T01:19:37;22.08;;;13.23;;
35969;SDS011;22448;51.298;6.430;2023-06-22T01:22:11;21.25;;;13.45;;
35969;SDS011;22448;51.298;6.430;2023-06-22T01:24:54;21.15;;;13.60;;
35969;SDS011;22448;51.298;6.430;2023-06-22T01:27:37;23.73;;;13.68;;
35969;SDS011;22448;51.298;6.430;2023-06-22T01:30:28;27.08;;;14.73;;
35969;SDS011;22448;51.298;6.430;2023-06-22T01:32:57;22.50;;;14.85;;
35969;SDS011;22448;51.298;6.430;2023-06-22T01:35:25;21.02;;;14.10;;
35969;SDS011;22448;51.298;6.430;2023-06-22T01:37:52;18.88;;;13.57;;
35969;SDS011;22448;51.298;6.430;2023-06-22T01:40:20;19.13;;;13.40;;
35969;SDS011;22448;51.298;6.430;2023-06-22T01:42:50;17.13;;;12.93;;
35969;SDS011;22448;51.298;6.430;2023-06-22T01:45:18;20.98;;;13.23;;
35969;SDS011;22448;51.298;6.430;2023-06-22T01:47:45;19.00;;;13.90;;
35969;SDS011;22448;51.298;6.430;2023-06-22T01:50:13;21.92;;;14.10;;
35969;SDS011;22448;51.298;6.430;2023-06-22T01:52:41;28.08;;;14.60;;
35969;SDS011;22448;51.298;6.430;2023-06-22T01:55:08;24.42;;;14.20;;
35969;SDS011;22448;51.298;6.430;2023-06-22T01:57:35;22.50;;;12.70;;
35969;SDS011;22448;51.298;6.430;2023-06-22T02:00:03;25.63;;;14.05;;
35969;SDS011;22448;51.298;6.430;2023-06-22T02:02:48;19.70;;;13.40;;
35969;SDS011;22448;51.298;6.430;2023-06-22T02:05:24;21.45;;;14.15;;
35969;SDS011;22448;51.298;6.430;2023-06-22T02:10:32;26.40;;;15.65;;
35969;SDS011;22448;51.298;6.430;2023-06-22T02:13:03;26.48;;;15.10;;
35969;SDS011;22448;51.298;6.430;2023-06-22T02:15:33;22.85;;;14.95;;
35969;SDS011;22448;51.298;6.430;2023-06-22T02:18:00;20.40;;;14.45;;
35969;SDS011;22448;51.298;6.430;2023-06-22T02:20:27;24.60;;;14.38;;
35969;SDS011;22448;51.298;6.430;2023-06-22T02:22:55;22.00;;;15.57;;
35969;SDS011;22448;51.298;6.430;2023-06-22T02:25:22;23.10;;;15.38;;
35969;SDS011;22448;51.298;6.430;2023-06-22T02:27:49;22.88;;;15.68;;
35969;SDS011;22448;51.298;6.430;2023-06-22T02:30:16;29.10;;;16.45;;
35969;SDS011;22448;51.298;6.430;2023-06-22T02:32:43;28.23;;;16.85;;
35969;SDS011;22448;51.298;6.430;2023-06-22T02:35:14;31.70;;;16.70;;
35969;SDS011;22448;51.298;6.430;2023-06-22T02:37:41;28.23;;;17.17;;
35969;SDS011;22448;51.298;6.430;2023-06-22T02:40:08;29.88;;;16.38;;
35969;SDS011;22448;51.298;6.430;2023-06-22T02:42:37;29.10;;;16.60;;
35969;SDS011;22448;51.298;6.430;2023-06-22T02:45:04;34.08;;;17.58;;
35969;SDS011;22448;51.298;6.430;2023-06-22T02:47:32;23.73;;;16.40;;
35969;SDS011;22448;51.298;6.430;2023-06-22T02:49:59;24.20;;;17.02;;
35969;SDS011;22448;51.298;6.430;2023-06-22T02:52:30;26.27;;;18.55;;
35969;SDS011;22448;51.298;6.430;2023-06-22T02:54:57;25.40;;;17.70;;
35969;SDS011;22448;51.298;6.430;2023-06-22T02:57:24;26.20;;;16.88;;
35969;SDS011;22448;51.298;6.430;2023-06-22T02:59:51;23.45;;;17.15;;
35969;SDS011;22448;51.298;6.430;2023-06-22T03:02:18;26.17;;;17.38;;
35969;SDS011;22448;51.298;6.430;2023-06-22T03:04:48;23.67;;;16.65;;
35969;SDS011;22448;51.298;6.430;2023-06-22T03:07:15;29.10;;;18.95;;
35969;SDS011;22448;51.298;6.430;2023-06-22T03:09:44;24.75;;;18.38;;
35969;SDS011;22448;51.298;6.430;2023-06-22T03:12:11;26.13;;;17.45;;
35969;SDS011;22448;51.298;6.430;2023-06-22T03:14:46;28.58;;;20.17;;
35969;SDS011;22448;51.298;6.430;2023-06-22T03:17:14;26.52;;;19.58;;
35969;SDS011;22448;51.298;6.430;2023-06-22T03:19:41;31.27;;;19.40;;
35969;SDS011;22448;51.298;6.430;2023-06-22T03:22:08;27.60;;;18.88;;
35969;SDS011;22448;51.298;6.430;2023-06-22T03:24:39;28.35;;;18.27;;
35969;SDS011;22448;51.298;6.430;2023-06-22T03:27:06;23.58;;;17.88;;
35969;SDS011;22448;51.298;6.430;2023-06-22T03:29:33;27.58;;;19.65;;
35969;SDS011;22448;51.298;6.430;2023-06-22T03:32:00;32.30;;;18.40;;
35969;SDS011;22448;51.298;6.430;2023-06-22T03:34:28;28.85;;;18.65;;
35969;SDS011;22448;51.298;6.430;2023-06-22T03:36:55;26.98;;;17.92;;
35969;SDS011;22448;51.298;6.430;2023-06-22T03:39:22;24.20;;;19.17;;
35969;SDS011;22448;51.298;6.430;2023-06-22T03:41:49;26.98;;;19.67;;
35969;SDS011;22448;51.298;6.430;2023-06-22T03:44:16;28.80;;;19.13;;
35969;SDS011;22448;51.298;6.430;2023-06-22T03:46:44;30.75;;;21.00;;
35969;SDS011;22448;51.298;6.430;2023-06-22T03:49:11;29.45;;;20.30;;
35969;SDS011;22448;51.298;6.430;2023-06-22T03:51:38;32.90;;;20.63;;
35969;SDS011;22448;51.298;6.430;2023-06-22T03:54:05;28.50;;;19.60;;
35969;SDS011;22448;51.298;6.430;2023-06-22T03:56:32;27.25;;;18.83;;
35969;SDS011;22448;51.298;6.430;2023-06-22T03:58:59;28.63;;;20.00;;
35969;SDS011;22448;51.298;6.430;2023-06-22T04:01:26;26.08;;;20.13;;
35969;SDS011;22448;51.298;6.430;2023-06-22T04:03:53;26.13;;;19.67;;
35969;SDS011;22448;51.298;6.430;2023-06-22T04:06:21;26.90;;;20.38;;
35969;SDS011;22448;51.298;6.430;2023-06-22T04:08:49;28.80;;;18.98;;
35969;SDS011;22448;51.298;6.430;2023-06-22T04:11:17;28.77;;;18.70;;
35969;SDS011;22448;51.298;6.430;2023-06-22T04:13:45;31.95;;;20.05;;
35969;SDS011;22448;51.298;6.430;2023-06-22T04:16:12;33.30;;;20.73;;
35969;SDS011;22448;51.298;6.430;2023-06-22T04:18:39;28.67;;;19.80;;
35969;SDS011;22448;51.298;6.430;2023-06-22T04:21:06;36.35;;;21.73;;
35969;SDS011;22448;51.298;6.430;2023-06-22T04:23:33;28.48;;;21.10;;
35969;SDS011;22448;51.298;6.430;2023-06-22T04:26:00;25.88;;;19.65;;
35969;SDS011;22448;51.298;6.430;2023-06-22T04:28:27;30.30;;;20.50;;
35969;SDS011;22448;51.298;6.430;2023-06-22T04:30:54;31.90;;;20.48;;
35969;SDS011;22448;51.298;6.430;2023-06-22T04:33:24;30.70;;;20.75;;
35969;SDS011;22448;51.298;6.430;2023-06-22T04:35:51;31.30;;;21.52;;
35969;SDS011;22448;51.298;6.430;2023-06-22T04:38:18;33.63;;;22.00;;
35969;SDS011;22448;51.298;6.430;2023-06-22T04:40:48;30.45;;;20.73;;
35969;SDS011;22448;51.298;6.430;2023-06-22T04:43:15;26.90;;;19.58;;
35969;SDS011;22448;51.298;6.430;2023-06-22T04:45:42;29.92;;;20.20;;
35969;SDS011;22448;51.298;6.430;2023-06-22T04:48:09;30.38;;;19.77;;
35969;SDS011;22448;51.298;6.430;2023-06-22T04:50:39;26.88;;;19.98;;
35969;SDS011;22448;51.298;6.430;2023-06-22T04:53:06;30.48;;;20.92;;
35969;SDS011;22448;51.298;6.430;2023-06-22T04:55:33;29.63;;;20.75;;
35969;SDS011;22448;51.298;6.430;2023-06-22T04:58:00;29.73;;;20.83;;
35969;SDS011;22448;51.298;6.430;2023-06-22T05:00:31;33.25;;;21.65;;
35969;SDS011;22448;51.298;6.430;2023-06-22T05:02:58;31.23;;;20.02;;
35969;SDS011;22448;51.298;6.430;2023-06-22T05:05:36;34.97;;;21.85;;
35969;SDS011;22448;51.298;6.430;2023-06-22T05:08:03;34.47;;;21.33;;
35969;SDS011;22448;51.298;6.430;2023-06-22T05:10:33;32.90;;;21.70;;
35969;SDS011;22448;51.298;6.430;2023-06-22T05:13:00;28.10;;;21.20;;
35969;SDS011;22448;51.298;6.430;2023-06-22T05:15:27;31.00;;;21.55;;
35969;SDS011;22448;51.298;6.430;2023-06-22T05:18:03;31.80;;;22.00;;
35969;SDS011;22448;51.298;6.430;2023-06-22T05:20:32;37.17;;;22.75;;
35969;SDS011;22448;51.298;6.430;2023-06-22T05:23:02;31.35;;;21.63;;
35969;SDS011;22448;51.298;6.430;2023-06-22T05:25:29;38.03;;;20.95;;
35969;SDS011;22448;51.298;6.430;2023-06-22T05:27:59;33.95;;;20.80;;
35969;SDS011;22448;51.298;6.430;2023-06-22T05:30:25;31.73;;;21.55;;
35969;SDS011;22448;51.298;6.430;2023-06-22T05:32:54;32.38;;;21.77;;
35969;SDS011;22448;51.298;6.430;2023-06-22T05:35:21;29.67;;;22.85;;
35969;SDS011;22448;51.298;6.430;2023-06-22T05:37:48;37.00;;;21.38;;
35969;SDS011;22448;51.298;6.430;2023-06-22T05:40:15;37.70;;;21.70;;
35969;SDS011;22448;51.298;6.430;2023-06-22T05:42:42;31.88;;;20.88;;
35969;SDS011;22448;51.298;6.430;2023-06-22T05:45:10;30.60;;;22.05;;
35969;SDS011;22448;51.298;6.430;2023-06-22T05:47:37;37.75;;;24.42;;
35969;SDS011;22448;51.298;6.430;2023-06-22T05:50:04;37.78;;;21.95;;
35969;SDS011;22448;51.298;6.430;2023-06-22T05:52:34;34.83;;;23.05;;
35969;SDS011;22448;51.298;6.430;2023-06-22T05:55:01;33.33;;;22.95;;
35969;SDS011;22448;51.298;6.430;2023-06-22T05:57:29;29.23;;;21.88;;
35969;SDS011;22448;51.298;6.430;2023-06-22T05:59:56;44.92;;;22.55;;
35969;SDS011;22448;51.298;6.430;2023-06-22T06:02:23;34.90;;;22.52;;
35969;SDS011;22448;51.298;6.430;2023-06-22T06:04:50;34.75;;;21.15;;
35969;SDS011;22448;51.298;6.430;2023-06-22T06:07:19;30.67;;;21.48;;
35969;SDS011;22448;51.298;6.430;2023-06-22T06:09:46;31.13;;;22.98;;
35969;SDS011;22448;51.298;6.430;2023-06-22T06:12:14;36.10;;;21.45;;
35969;SDS011;22448;51.298;6.430;2023-06-22T06:14:41;31.48;;;21.73;;
35969;SDS011;22448;51.298;6.430;2023-06-22T06:17:08;33.25;;;21.48;;
35969;SDS011;22448;51.298;6.430;2023-06-22T06:19:35;35.03;;;22.17;;
35969;SDS011;22448;51.298;6.430;2023-06-22T06:22:02;32.03;;;21.38;;
35969;SDS011;22448;51.298;6.430;2023-06-22T06:24:29;34.17;;;21.15;;
35969;SDS011;22448;51.298;6.430;2023-06-22T06:26:56;38.90;;;22.77;;
35969;SDS011;22448;51.298;6.430;2023-06-22T06:29:23;33.47;;;22.27;;
35969;SDS011;22448;51.298;6.430;2023-06-22T06:31:52;30.52;;;22.00;;
35969;SDS011;22448;51.298;6.430;2023-06-22T06:34:20;32.65;;;21.45;;
35969;SDS011;22448;51.298;6.430;2023-06-22T06:36:47;33.63;;;21.88;;
35969;SDS011;22448;51.298;6.430;2023-06-22T06:39:14;34.33;;;22.38;;
35969;SDS011;22448;51.298;6.430;2023-06-22T06:41:42;29.95;;;20.60;;
35969;SDS011;22448;51.298;6.430;2023-06-22T06:44:14;30.98;;;21.42;;
35969;SDS011;22448;51.298;6.430;2023-06-22T06:46:41;32.03;;;20.45;;
35969;SDS011;22448;51.298;6.430;2023-06-22T06:49:08;29.15;;;21.17;;
35969;SDS011;22448;51.298;6.430;2023-06-22T06:51:35;29.40;;;21.35;;
35969;SDS011;22448;51.298;6.430;2023-06-22T06:54:02;34.17;;;21.65;;
35969;SDS011;22448;51.298;6.430;2023-06-22T06:56:29;32.47;;;20.70;;
35969;SDS011;22448;51.298;6.430;2023-06-22T06:58:56;28.38;;;19.98;;
35969;SDS011;22448;51.298;6.430;2023-06-22T07:01:26;32.97;;;20.50;;
35969;SDS011;22448;51.298;6.430;2023-06-22T07:03:53;38.80;;;22.10;;
35969;SDS011;22448;51.298;6.430;2023-06-22T07:06:20;33.00;;;20.90;;
35969;SDS011;22448;51.298;6.430;2023-06-22T07:08:47;30.55;;;21.42;;
35969;SDS011;22448;51.298;6.430;2023-06-22T07:11:13;32.80;;;21.55;;
35969;SDS011;22448;51.298;6.430;2023-06-22T07:13:40;33.90;;;21.33;;
35969;SDS011;22448;51.298;6.430;2023-06-22T07:16:08;34.03;;;21.75;;
35969;SDS011;22448;51.298;6.430;2023-06-22T07:18:35;31.35;;;21.13;;
35969;SDS011;22448;51.298;6.430;2023-06-22T07:21:02;29.05;;;20.38;;
35969;SDS011;22448;51.298;6.430;2023-06-22T07:23:33;36.95;;;20.35;;
35969;SDS011;22448;51.298;6.430;2023-06-22T07:26:00;31.00;;;20.25;;
35969;SDS011;22448;51.298;6.430;2023-06-22T07:28:32;28.83;;;20.65;;
35969;SDS011;22448;51.298;6.430;2023-06-22T07:31:03;33.83;;;21.67;;
35969;SDS011;22448;51.298;6.430;2023-06-22T07:33:31;31.45;;;21.92;;
35969;SDS011;22448;51.298;6.430;2023-06-22T07:35:58;38.78;;;23.00;;
35969;SDS011;22448;51.298;6.430;2023-06-22T07:38:25;38.47;;;22.10;;
35969;SDS011;22448;51.298;6.430;2023-06-22T07:40:52;30.23;;;21.88;;
35969;SDS011;22448;51.298;6.430;2023-06-22T07:43:19;28.55;;;22.27;;
35969;SDS011;22448;51.298;6.430;2023-06-22T07:45:48;37.05;;;22.27;;
35969;SDS011;22448;51.298;6.430;2023-06-22T07:48:21;35.03;;;23.40;;
35969;SDS011;22448;51.298;6.430;2023-06-22T07:50:49;34.80;;;23.63;;
35969;SDS011;22448;51.298;6.430;2023-06-22T07:53:16;39.80;;;23.83;;
35969;SDS011;22448;51.298;6.430;2023-06-22T07:55:43;38.97;;;24.77;;
35969;SDS011;22448;51.298;6.430;2023-06-22T07:58:11;32.55;;;23.50;;
35969;SDS011;22448;51.298;6.430;2023-06-22T08:00:38;36.63;;;24.92;;
35969;SDS011;22448;51.298;6.430;2023-06-22T08:03:05;39.67;;;24.58;;
35969;SDS011;22448;51.298;6.430;2023-06-22T08:05:33;32.80;;;24.13;;
35969;SDS011;22448;51.298;6.430;2023-06-22T08:08:01;35.42;;;22.65;;
35969;SDS011;22448;51.298;6.430;2023-06-22T08:10:28;39.50;;;23.48;;
35969;SDS011;22448;51.298;6.430;2023-06-22T08:12:55;37.92;;;20.73;;
35969;SDS011;22448;51.298;6.430;2023-06-22T08:15:22;34.08;;;21.20;;
35969;SDS011;22448;51.298;6.430;2023-06-22T08:17:49;26.05;;;18.77;;
35969;SDS011;22448;51.298;6.430;2023-06-22T08:20:16;30.63;;;17.70;;
35969;SDS011;22448;51.298;6.430;2023-06-22T08:22:43;27.33;;;16.67;;
35969;SDS011;22448;51.298;6.430;2023-06-22T08:25:11;26.83;;;17.95;;
35969;SDS011;22448;51.298;6.430;2023-06-22T08:27:39;29.33;;;16.70;;
35969;SDS011;22448;51.298;6.430;2023-06-22T08:30:06;21.08;;;15.63;;
35969;SDS011;22448;51.298;6.430;2023-06-22T08:32:37;27.60;;;15.70;;
35969;SDS011;22448;51.298;6.430;2023-06-22T08:35:04;23.63;;;16.40;;
35969;SDS011;22448;51.298;6.430;2023-06-22T08:37:34;23.10;;;15.60;;
35969;SDS011;22448;51.298;6.430;2023-06-22T08:40:03;28.60;;;18.83;;
35969;SDS011;22448;51.298;6.430;2023-06-22T08:42:34;32.35;;;18.63;;
35969;SDS011;22448;51.298;6.430;2023-06-22T08:45:02;32.30;;;21.33;;
35969;SDS011;22448;51.298;6.430;2023-06-22T08:47:29;30.83;;;18.98;;
35969;SDS011;22448;51.298;6.430;2023-06-22T08:49:56;49.05;;;22.88;;
35969;SDS011;22448;51.298;6.430;2023-06-22T08:52:23;29.20;;;20.30;;
35969;SDS011;22448;51.298;6.430;2023-06-22T08:54:50;32.75;;;19.67;;
35969;SDS011;22448;51.298;6.430;2023-06-22T08:57:17;29.15;;;19.83;;
35969;SDS011;22448;51.298;6.430;2023-06-22T08:59:45;31.58;;;19.17;;
35969;SDS011;22448;51.298;6.430;2023-06-22T09:02:12;27.05;;;18.75;;
35969;SDS011;22448;51.298;6.430;2023-06-22T09:04:39;29.60;;;19.15;;
35969;SDS011;22448;51.298;6.430;2023-06-22T09:07:06;32.03;;;19.75;;
35969;SDS011;22448;51.298;6.430;2023-06-22T09:09:33;29.95;;;18.63;;
35969;SDS011;22448;51.298;6.430;2023-06-22T09:12:00;23.95;;;18.95;;
35969;SDS011;22448;51.298;6.430;2023-06-22T09:14:28;28.02;;;18.48;;
35969;SDS011;22448;51.298;6.430;2023-06-22T09:16:55;28.92;;;19.00;;
35969;SDS011;22448;51.298;6.430;2023-06-22T09:19:22;30.23;;;20.33;;
35969;SDS011;22448;51.298;6.430;2023-06-22T09:21:49;30.20;;;20.50;;
35969;SDS011;22448;51.298;6.430;2023-06-22T09:24:16;27.52;;;19.40;;
35969;SDS011;22448;51.298;6.430;2023-06-22T09:26:43;30.02;;;19.67;;
35969;SDS011;22448;51.298;6.430;2023-06-22T09:29:11;26.08;;;18.77;;
35969;SDS011;22448;51.298;6.430;2023-06-22T09:31:38;27.67;;;18.90;;
35969;SDS011;22448;51.298;6.430;2023-06-22T09:34:05;30.73;;;19.40;;
35969;SDS011;22448;51.298;6.430;2023-06-22T09:36:32;28.00;;;19.55;;
35969;SDS011;22448;51.298;6.430;2023-06-22T09:38:59;27.88;;;19.60;;
35969;SDS011;22448;51.298;6.430;2023-06-22T09:43:59;25.55;;;18.65;;
35969;SDS011;22448;51.298;6.430;2023-06-22T09:46:26;27.05;;;18.92;;
35969;SDS011;22448;51.298;6.430;2023-06-22T09:48:54;30.00;;;20.10;;
35969;SDS011;22448;51.298;6.430;2023-06-22T09:51:21;31.02;;;19.40;;
35969;SDS011;22448;51.298;6.430;2023-06-22T09:53:50;29.48;;;18.55;;
35969;SDS011;22448;51.298;6.430;2023-06-22T09:56:18;32.70;;;19.42;;
35969;SDS011;22448;51.298;6.430;2023-06-22T09:58:46;30.98;;;18.30;;
35969;SDS011;22448;51.298;6.430;2023-06-22T10:01:13;30.42;;;18.95;;
35969;SDS011;22448;51.298;6.430;2023-06-22T10:03:41;28.70;;;18.73;;
35969;SDS011;22448;51.298;6.430;2023-06-22T10:06:08;33.10;;;19.23;;
35969;SDS011;22448;51.298;6.430;2023-06-22T10:08:35;30.67;;;19.25;;
35969;SDS011;22448;51.298;6.430;2023-06-22T10:11:05;36.92;;;20.95;;
35969;SDS011;22448;51.298;6.430;2023-06-22T10:13:33;36.60;;;20.90;;
35969;SDS011;22448;51.298;6.430;2023-06-22T10:16:00;27.73;;;18.85;;
35969;SDS011;22448;51.298;6.430;2023-06-22T10:18:27;28.85;;;20.92;;
35969;SDS011;22448;51.298;6.430;2023-06-22T10:20:54;33.15;;;21.60;;
35969;SDS011;22448;51.298;6.430;2023-06-22T10:23:20;30.98;;;20.60;;
35969;SDS011;22448;51.298;6.430;2023-06-22T10:25:48;28.50;;;20.35;;
35969;SDS011;22448;51.298;6.430;2023-06-22T10:28:15;27.92;;;19.95;;
35969;SDS011;22448;51.298;6.430;2023-06-22T10:30:42;31.10;;;22.02;;
35969;SDS011;22448;51.298;6.430;2023-06-22T10:33:10;32.40;;;22.13;;
35969;SDS011;22448;51.298;6.430;2023-06-22T10:35:38;37.60;;;22.48;;
35969;SDS011;22448;51.298;6.430;2023-06-22T10:38:05;34.10;;;21.20;;
35969;SDS011;22448;51.298;6.430;2023-06-22T10:40:32;34.10;;;22.10;;
35969;SDS011;22448;51.298;6.430;2023-06-22T10:43:00;36.45;;;20.65;;
35969;SDS011;22448;51.298;6.430;2023-06-22T10:45:27;32.05;;;21.48;;
35969;SDS011;22448;51.298;6.430;2023-06-22T10:47:55;33.90;;;24.02;;
35969;SDS011;22448;51.298;6.430;2023-06-22T10:50:22;34.05;;;22.55;;
35969;SDS011;22448;51.298;6.430;2023-06-22T10:52:50;41.08;;;23.70;;
35969;SDS011;22448;51.298;6.430;2023-06-22T10:55:18;32.35;;;21.52;;
35969;SDS011;22448;51.298;6.430;2023-06-22T10:57:45;38.13;;;26.08;;
35969;SDS011;22448;51.298;6.430;2023-06-22T11:00:14;40.08;;;24.95;;
35969;SDS011;22448;51.298;6.430;2023-06-22T11:02:42;37.58;;;25.15;;
35969;SDS011;22448;51.298;6.430;2023-06-22T11:05:10;44.38;;;27.85;;
35969;SDS011;22448;51.298;6.430;2023-06-22T11:07:41;42.42;;;28.00;;
35969;SDS011;22448;51.298;6.430;2023-06-22T11:10:09;38.15;;;27.02;;
35969;SDS011;22448;51.298;6.430;2023-06-22T11:12:37;32.83;;;26.00;;
35969;SDS011;22448;51.298;6.430;2023-06-22T11:15:04;37.28;;;28.52;;
35969;SDS011;22448;51.298;6.430;2023-06-22T11:17:32;35.75;;;28.00;;
35969;SDS011;22448;51.298;6.430;2023-06-22T11:19:59;35.50;;;28.40;;
35969;SDS011;22448;51.298;6.430;2023-06-22T11:22:26;42.95;;;28.60;;
35969;SDS011;22448;51.298;6.430;2023-06-22T11:24:53;45.67;;;29.63;;
35969;SDS011;22448;51.298;6.430;2023-06-22T11:27:20;44.45;;;30.60;;
35969;SDS011;22448;51.298;6.430;2023-06-22T11:29:47;49.97;;;31.40;;
35969;SDS011;22448;51.298;6.430;2023-06-22T11:32:14;45.58;;;33.92;;
35969;SDS011;22448;51.298;6.430;2023-06-22T11:34:41;44.28;;;34.30;;
35969;SDS011;22448;51.298;6.430;2023-06-22T11:37:08;39.10;;;32.28;;
35969;SDS011;22448;51.298;6.430;2023-06-22T11:39:35;44.60;;;33.90;;
35969;SDS011;22448;51.298;6.430;2023-06-22T11:42:13;52.38;;;35.40;;
35969;SDS011;22448;51.298;6.430;2023-06-22T11:44:41;48.42;;;35.47;;
35969;SDS011;22448;51.298;6.430;2023-06-22T11:47:09;52.50;;;36.65;;
35969;SDS011;22448;51.298;6.430;2023-06-22T11:49:36;51.63;;;38.38;;
35969;SDS011;22448;51.298;6.430;2023-06-22T11:52:03;63.38;;;38.80;;
35969;SDS011;22448;51.298;6.430;2023-06-22T11:54:30;60.83;;;38.35;;
35969;SDS011;22448;51.298;6.430;2023-06-22T11:56:57;55.80;;;39.67;;
35969;SDS011;22448;51.298;6.430;2023-06-22T11:59:24;56.00;;;39.60;;
35969;SDS011;22448;51.298;6.430;2023-06-22T12:01:51;56.55;;;40.15;;
35969;SDS011;22448;51.298;6.430;2023-06-22T12:04:18;59.95;;;40.28;;
35969;SDS011;22448;51.298;6.430;2023-06-22T12:06:45;55.13;;;37.05;;
35969;SDS011;22448;51.298;6.430;2023-06-22T12:09:13;55.42;;;39.67;;
35969;SDS011;22448;51.298;6.430;2023-06-22T12:11:40;68.13;;;39.70;;
35969;SDS011;22448;51.298;6.430;2023-06-22T12:14:07;56.65;;;37.55;;
35969;SDS011;22448;51.298;6.430;2023-06-22T12:16:34;51.53;;;36.70;;
35969;SDS011;22448;51.298;6.430;2023-06-22T12:19:01;54.63;;;37.72;;
35969;SDS011;22448;51.298;6.430;2023-06-22T12:21:28;55.80;;;37.22;;
35969;SDS011;22448;51.298;6.430;2023-06-22T12:23:56;56.55;;;36.97;;
35969;SDS011;22448;51.298;6.430;2023-06-22T12:26:23;51.38;;;34.67;;
35969;SDS011;22448;51.298;6.430;2023-06-22T12:28:50;45.15;;;34.78;;
35969;SDS011;22448;51.298;6.430;2023-06-22T12:31:17;50.67;;;36.67;;
35969;SDS011;22448;51.298;6.430;2023-06-22T12:33:44;44.03;;;35.95;;
35969;SDS011;22448;51.298;6.430;2023-06-22T12:36:11;38.33;;;31.88;;
35969;SDS011;22448;51.298;6.430;2023-06-22T12:38:38;44.47;;;33.67;;
35969;SDS011;22448;51.298;6.430;2023-06-22T12:41:05;41.28;;;32.85;;
35969;SDS011;22448;51.298;6.430;2023-06-22T12:43:32;38.38;;;31.15;;
35969;SDS011;22448;51.298;6.430;2023-06-22T12:45:59;41.50;;;32.47;;
35969;SDS011;22448;51.298;6.430;2023-06-22T12:48:27;43.72;;;33.25;;
35969;SDS011;22448;51.298;6.430;2023-06-22T12:50:54;42.85;;;33.78;;
35969;SDS011;22448;51.298;6.430;2023-06-22T12:53:21;40.95;;;32.83;;
35969;SDS011;22448;51.298;6.430;2023-06-22T12:55:49;42.30;;;34.40;;
35969;SDS011;22448;51.298;6.430;2023-06-22T12:58:16;40.85;;;32.90;;
35969;SDS011;22448;51.298;6.430;2023-06-22T13:00:44;46.65;;;35.58;;
35969;SDS011;22448;51.298;6.430;2023-06-22T13:03:11;44.15;;;36.17;;
35969;SDS011;22448;51.298;6.430;2023-06-22T13:05:38;46.58;;;35.92;;
35969;SDS011;22448;51.298;6.430;2023-06-22T13:08:05;42.53;;;36.05;;
35969;SDS011;22448;51.298;6.430;2023-06-22T13:10:32;51.13;;;38.22;;
35969;SDS011;22448;51.298;6.430;2023-06-22T13:12:59;48.83;;;36.95;;
35969;SDS011;22448;51.298;6.430;2023-06-22T13:15:27;45.90;;;37.95;;
35969;SDS011;22448;51.298;6.430;2023-06-22T13:17:56;49.15;;;38.60;;
35969;SDS011;22448;51.298;6.430;2023-06-22T13:20:23;48.35;;;37.90;;
35969;SDS011;22448;51.298;6.430;2023-06-22T13:22:50;47.28;;;38.85;;
35969;SDS011;22448;51.298;6.430;2023-06-22T13:25:17;44.63;;;38.78;;
35969;SDS011;22448;51.298;6.430;2023-06-22T13:27:46;48.78;;;39.90;;
35969;SDS011;22448;51.298;6.430;2023-06-22T13:30:13;50.25;;;39.83;;
35969;SDS011;22448;51.298;6.430;2023-06-22T13:32:41;49.92;;;39.70;;
35969;SDS011;22448;51.298;6.430;2023-06-22T13:35:09;48.90;;;40.55;;
35969;SDS011;22448;51.298;6.430;2023-06-22T13:37:37;52.65;;;40.78;;
35969;SDS011;22448;51.298;6.430;2023-06-22T13:40:08;53.65;;;41.25;;
35969;SDS011;22448;51.298;6.430;2023-06-22T13:42:35;50.17;;;40.28;;
35969;SDS011;22448;51.298;6.430;2023-06-22T13:45:02;54.45;;;39.58;;
35969;SDS011;22448;51.298;6.430;2023-06-22T13:47:31;48.72;;;40.33;;
35969;SDS011;22448;51.298;6.430;2023-06-22T13:49:58;47.20;;;38.67;;
35969;SDS011;22448;51.298;6.430;2023-06-22T13:52:25;49.95;;;39.30;;
35969;SDS011;22448;51.298;6.430;2023-06-22T13:54:52;47.72;;;39.00;;
35969;SDS011;22448;51.298;6.430;2023-06-22T13:57:19;53.20;;;40.28;;
35969;SDS011;22448;51.298;6.430;2023-06-22T13:59:46;51.00;;;39.88;;
35969;SDS011;22448;51.298;6.430;2023-06-22T14:02:13;48.00;;;39.55;;
35969;SDS011;22448;51.298;6.430;2023-06-22T14:04:40;48.38;;;38.40;;
35969;SDS011;22448;51.298;6.430;2023-06-22T14:07:07;50.58;;;40.67;;
35969;SDS011;22448;51.298;6.430;2023-06-22T14:09:34;48.70;;;38.50;;
35969;SDS011;22448;51.298;6.430;2023-06-22T14:12:04;47.95;;;39.67;;
35969;SDS011;22448;51.298;6.430;2023-06-22T14:14:32;52.88;;;38.70;;
35969;SDS011;22448;51.298;6.430;2023-06-22T14:17:00;49.47;;;39.88;;
35969;SDS011;22448;51.298;6.430;2023-06-22T14:19:27;45.70;;;37.78;;
35969;SDS011;22448;51.298;6.430;2023-06-22T14:21:54;50.22;;;38.47;;
35969;SDS011;22448;51.298;6.430;2023-06-22T14:24:21;48.35;;;39.45;;
35969;SDS011;22448;51.298;6.430;2023-06-22T14:26:52;46.03;;;38.72;;
35969;SDS011;22448;51.298;6.430;2023-06-22T14:29:18;47.08;;;37.58;;
35969;SDS011;22448;51.298;6.430;2023-06-22T14:31:45;49.58;;;38.95;;